MET'MAP v2.0
soon released !

Expected late october,
this new version will be
more efficient, smarter,
and hosted on a brand new
server x3 powerfull...
...and still free !


Not compatible ?
Try the mobile version !

LOG IN : | Subscribe | Disclaimer | Who is Orbifly ? |
ICAO code :

TAF - HLLQ Labraq - 08 Apr 2020 00:44 UTC - Data Source NOAA   


- Airport Elevation : 2157 ft
- IATA code : LAQ
- No reported NOTAMs.


HLLQ - Labraq

NO METAR
TAF TAF HLLQ
Valid from the 07 at 18:00 until the 08 at 18:00 UTC


071700Z 0718/0818 03012KT 8000 SCT025 SCT070 PROB 30
TEMPO 0804/0812 5000 SHRA BKN025

Source NOAA


MET'MAP, your aeronautical weather chart ! - Copyright ORBIFLY December 2007

Programming & Development : Alexandra Zaïnal
Co-Developer : Marc-Olivier Méhu
Technical & hardware support : Manuel Goepfert
Concept & Financing : Baudouin d'Aumeries